createdAt,value
2023-03-18T00:01:07.410Z,100508.91
2023-03-18T00:03:37.782Z,100581.28
2023-03-18T00:06:10.314Z,100640.81
2023-03-18T00:08:39.429Z,100666.34
2023-03-18T00:11:07.908Z,100697.78
2023-03-18T00:13:36.041Z,100718.22
2023-03-18T00:16:05.631Z,100722.19
2023-03-18T00:18:34.372Z,100736.78
2023-03-18T00:21:03.898Z,100749.03
2023-03-18T00:23:34.552Z,100775.56
2023-03-18T00:26:03.320Z,100783.94
2023-03-18T00:28:32.681Z,100792.53
2023-03-18T00:31:08.540Z,100789.53
2023-03-18T00:33:38.131Z,100799.66
2023-03-18T00:36:07.451Z,100800.91
2023-03-18T00:38:37.154Z,100810.28
2023-03-18T00:41:11.429Z,100822.44
2023-03-18T00:43:46.140Z,100819.72
2023-03-18T00:46:16.382Z,100822.63
2023-03-18T00:48:44.661Z,100836.28
2023-03-18T00:51:14.241Z,100839.19
2023-03-18T00:53:45.010Z,100852.88
2023-03-18T00:56:13.166Z,100845.44
2023-03-18T00:58:41.776Z,100849.09
2023-03-18T01:01:10.148Z,100843.03
2023-03-18T01:03:37.929Z,100856.59
2023-03-18T01:06:06.118Z,100878.03
2023-03-18T01:08:33.905Z,100884.31
2023-03-18T01:11:03.432Z,100886.50
2023-03-18T01:13:31.674Z,100901.66
2023-03-18T01:15:59.770Z,100912.34
2023-03-18T01:18:27.845Z,100918.41
2023-03-18T01:20:55.616Z,100926.63
2023-03-18T01:23:24.191Z,100930.97
2023-03-18T01:25:52.317Z,100936.38
2023-03-18T01:28:24.287Z,100941.56
2023-03-18T01:30:52.067Z,100946.44
2023-03-18T01:33:23.095Z,100949.59
2023-03-18T01:35:56.550Z,100966.28
2023-03-18T01:38:30.352Z,100957.97
2023-03-18T01:41:02.955Z,100980.09
2023-03-18T01:43:34.938Z,100990.56
2023-03-18T01:46:23.908Z,101014.41
2023-03-18T01:48:52.987Z,101028.00
2023-03-18T01:51:22.537Z,101054.28
2023-03-18T01:53:51.945Z,101083.59
2023-03-18T01:56:21.200Z,101095.81
2023-03-18T01:58:55.952Z,101103.41
2023-03-18T02:01:30.133Z,101091.91
2023-03-18T02:04:01.033Z,101109.41
2023-03-18T02:06:29.373Z,101124.09
2023-03-18T02:09:01.752Z,101133.69
2023-03-18T02:11:32.464Z,101143.47
2023-03-18T02:14:04.047Z,101143.97
2023-03-18T02:16:36.078Z,101164.09
2023-03-18T02:19:12.046Z,101171.41
2023-03-18T02:21:47.789Z,101168.09
2023-03-18T02:24:28.837Z,101164.16
2023-03-18T02:27:01.765Z,101181.31
2023-03-18T02:29:41.175Z,101190.28
2023-03-18T02:32:15.419Z,101177.03
2023-03-18T02:34:45.232Z,101173.28
2023-03-18T02:37:13.440Z,101176.25
2023-03-18T02:39:43.350Z,101167.63
2023-03-18T02:42:14.058Z,101147.41
2023-03-18T02:44:49.558Z,101134.56
2023-03-18T02:47:36.725Z,101126.63
2023-03-18T02:50:06.615Z,101108.53
2023-03-18T02:52:34.834Z,101104.06
2023-03-18T02:55:03.716Z,101082.78
2023-03-18T02:57:32.400Z,101074.94
2023-03-18T03:00:02.410Z,101071.97
2023-03-18T03:02:30.477Z,101058.00
2023-03-18T03:04:58.883Z,101045.22
2023-03-18T03:07:27.770Z,101015.13
2023-03-18T03:09:56.791Z,100994.56
2023-03-18T03:12:25.328Z,100985.16
2023-03-18T03:14:56.917Z,100976.25
2023-03-18T03:17:29.490Z,100976.22
2023-03-18T03:19:57.970Z,100977.50
2023-03-18T03:22:27.018Z,100981.63
2023-03-18T03:24:55.255Z,100992.78
2023-03-18T03:27:23.122Z,100995.13
2023-03-18T03:29:51.229Z,101007.41
2023-03-18T03:32:21.666Z,101017.31
2023-03-18T03:34:52.355Z,101028.03
2023-03-18T03:37:20.232Z,101040.66
2023-03-18T03:39:48.963Z,101051.25
2023-03-18T03:42:16.688Z,101058.09
2023-03-18T03:44:45.760Z,101050.94
2023-03-18T03:47:14.045Z,101059.28
2023-03-18T03:49:42.617Z,101061.66
2023-03-18T03:52:12.922Z,101082.03
2023-03-18T03:54:42.761Z,101093.94
2023-03-18T03:57:10.830Z,101093.59
2023-03-18T03:59:38.778Z,101111.72
2023-03-18T04:02:19.117Z,101110.91
2023-03-18T04:04:47.356Z,101119.66
2023-03-18T04:07:27.106Z,101125.59
2023-03-18T04:09:55.986Z,101125.38
2023-03-18T04:12:23.980Z,101134.84
2023-03-18T04:14:57.534Z,101144.06
2023-03-18T04:17:25.669Z,101143.28
2023-03-18T04:19:54.334Z,101160.59
2023-03-18T04:22:24.817Z,101170.16
2023-03-18T04:24:53.974Z,101177.41
2023-03-18T04:27:22.717Z,101176.63
2023-03-18T04:29:51.916Z,101189.94
2023-03-18T04:32:21.763Z,101201.50
2023-03-18T04:34:50.369Z,101211.97
2023-03-18T04:37:20.063Z,101213.09
2023-03-18T04:39:51.294Z,101215.47
2023-03-18T04:42:20.495Z,101226.53
2023-03-18T04:44:48.648Z,101223.97
2023-03-18T04:47:17.215Z,101235.13
2023-03-18T04:49:46.713Z,101233.91
2023-03-18T04:52:16.391Z,101243.09
2023-03-18T04:54:44.778Z,101250.41
2023-03-18T04:57:12.914Z,101260.09
2023-03-18T04:59:50.106Z,101265.34
2023-03-18T05:02:17.854Z,101275.16
2023-03-18T05:04:46.052Z,101275.16
2023-03-18T05:07:16.408Z,101290.31
2023-03-18T05:09:51.633Z,101290.16
2023-03-18T05:12:19.639Z,101295.56
2023-03-18T05:14:47.916Z,101299.09
2023-03-18T05:17:18.191Z,101306.28
2023-03-18T05:19:55.261Z,101313.34
2023-03-18T05:22:24.845Z,101316.75
2023-03-18T05:24:59.678Z,101321.09
2023-03-18T05:27:29.796Z,101315.72
2023-03-18T05:30:06.034Z,101321.91
2023-03-18T05:32:45.458Z,101317.38
2023-03-18T05:35:14.488Z,101304.69
2023-03-18T05:37:48.172Z,101309.34
2023-03-18T05:40:16.562Z,101307.19
2023-03-18T05:42:56.802Z,101307.94
2023-03-18T05:45:36.285Z,101305.38
2023-03-18T05:48:07.773Z,101301.78
2023-03-18T05:50:45.080Z,101293.00
2023-03-18T05:53:18.331Z,101293.56
2023-03-18T05:55:48.723Z,101290.06
2023-03-18T05:58:18.244Z,101295.13
2023-03-18T06:00:48.181Z,101290.59
2023-03-18T06:03:18.353Z,101288.16
2023-03-18T06:05:47.666Z,101281.72
2023-03-18T06:08:15.577Z,101276.38
2023-03-18T06:10:43.356Z,101275.00
2023-03-18T06:13:11.755Z,101272.84
2023-03-18T06:15:39.934Z,101274.75
2023-03-18T06:18:07.989Z,101282.44
2023-03-18T06:20:37.265Z,101290.22
2023-03-18T06:23:05.281Z,101299.03
2023-03-18T06:25:34.069Z,101288.38
2023-03-18T06:28:04.507Z,101272.56
2023-03-18T06:30:33.753Z,101273.06
2023-03-18T06:33:01.693Z,101264.47
2023-03-18T06:35:31.673Z,101259.00
2023-03-18T06:38:01.317Z,101268.59
2023-03-18T06:40:30.071Z,101262.03
2023-03-18T06:42:58.341Z,101260.34
2023-03-18T06:45:33.353Z,101257.19
2023-03-18T06:48:06.444Z,101256.13
2023-03-18T06:50:39.622Z,101245.56
2023-03-18T06:53:14.214Z,101253.38
2023-03-18T06:55:43.167Z,101261.78
2023-03-18T06:58:11.634Z,101262.03
2023-03-18T07:00:47.761Z,101241.81
2023-03-18T07:03:22.295Z,101206.44
2023-03-18T07:05:52.727Z,101160.69
2023-03-18T07:08:22.002Z,101128.38
2023-03-18T07:10:56.978Z,101087.03
2023-03-18T07:13:26.667Z,101059.38
2023-03-18T07:15:56.680Z,101055.13
2023-03-18T07:18:25.503Z,101063.28
2023-03-18T07:20:53.298Z,101046.91
2023-03-18T07:23:24.684Z,101028.91
2023-03-18T07:25:52.716Z,101017.19
2023-03-18T07:28:21.032Z,101022.47
2023-03-18T07:30:49.983Z,101007.03
2023-03-18T07:33:18.153Z,100995.25
2023-03-18T07:35:45.984Z,100981.06
2023-03-18T07:38:13.797Z,100982.53
2023-03-18T07:40:43.054Z,100982.78
2023-03-18T07:43:10.862Z,100976.97
2023-03-18T07:45:38.654Z,100969.66
2023-03-18T07:48:06.663Z,100964.00
2023-03-18T07:50:34.680Z,100975.81
2023-03-18T07:53:03.001Z,100983.03
2023-03-18T07:55:30.974Z,100981.38
2023-03-18T07:58:00.422Z,100988.13
2023-03-18T08:00:31.405Z,100991.69
2023-03-18T08:02:59.323Z,100996.84
2023-03-18T08:05:27.668Z,100997.19
2023-03-18T08:07:55.585Z,101007.94
2023-03-18T08:10:23.997Z,101009.25
2023-03-18T08:12:53.809Z,101004.84
2023-03-18T08:15:24.350Z,101015.75
2023-03-18T08:17:52.729Z,101010.25
2023-03-18T08:20:21.435Z,101009.59
2023-03-18T08:22:50.023Z,101010.34
2023-03-18T08:25:18.391Z,101014.13
2023-03-18T08:27:46.204Z,101008.31
2023-03-18T08:30:15.184Z,101016.97
2023-03-18T08:32:45.131Z,101011.44
2023-03-18T08:35:14.189Z,101015.66
2023-03-18T08:37:42.594Z,101009.97
2023-03-18T08:40:12.066Z,101013.81
2023-03-18T08:42:39.954Z,101009.47
2023-03-18T08:45:09.788Z,101007.25
2023-03-18T08:47:37.547Z,101004.22
2023-03-18T08:50:07.499Z,100992.31
2023-03-18T08:52:35.578Z,100996.81
2023-03-18T08:55:03.561Z,100986.84
2023-03-18T08:57:31.983Z,100986.72
2023-03-18T08:59:59.885Z,100983.78
2023-03-18T09:02:28.599Z,100989.78
2023-03-18T09:04:56.541Z,100985.94
2023-03-18T09:07:25.739Z,100986.94
2023-03-18T09:09:54.053Z,100978.50
2023-03-18T09:12:22.116Z,100983.31
2023-03-18T09:14:49.992Z,100983.72
2023-03-18T09:17:17.859Z,100972.75
2023-03-18T09:19:45.881Z,100987.31
2023-03-18T09:22:13.822Z,100984.69
2023-03-18T09:24:46.100Z,100981.41
2023-03-18T09:27:14.235Z,100980.16
2023-03-18T09:29:43.219Z,100986.47
2023-03-18T09:32:11.206Z,100982.13
2023-03-18T09:34:39.140Z,100980.13
2023-03-18T09:37:07.109Z,100976.03
2023-03-18T09:39:34.889Z,100966.34
2023-03-18T09:42:28.598Z,100960.81
2023-03-18T09:44:59.692Z,100962.44
2023-03-18T09:47:48.113Z,100966.63
2023-03-18T09:50:29.175Z,100967.22
2023-03-18T09:53:12.911Z,100962.66
2023-03-18T09:55:46.969Z,100957.97
2023-03-18T09:58:24.560Z,100952.75
2023-03-18T10:00:57.428Z,100947.69
2023-03-18T10:07:42.877Z,100948.31
2023-03-18T10:10:18.093Z,100947.81
2023-03-18T10:17:06.996Z,100935.72
2023-03-18T10:19:37.658Z,100936.41
2023-03-18T10:22:23.682Z,100947.91
2023-03-18T10:24:58.494Z,100935.91
2023-03-18T10:27:42.687Z,100926.28
2023-03-18T10:30:31.804Z,100927.72
2023-03-18T10:33:11.593Z,100927.75
2023-03-18T10:35:46.765Z,100930.06
2023-03-18T10:38:20.680Z,100930.25
2023-03-18T10:40:49.271Z,100934.00
2023-03-18T10:43:19.503Z,100932.38
2023-03-18T10:45:50.036Z,100938.94
2023-03-18T10:48:29.546Z,100928.69
2023-03-18T10:51:07.567Z,100923.44
2023-03-18T10:53:40.233Z,100919.41
2023-03-18T10:56:10.395Z,100917.78
2023-03-18T10:58:39.139Z,100911.25
2023-03-18T11:01:08.735Z,100917.00
2023-03-18T11:03:44.122Z,100908.41
2023-03-18T11:06:20.139Z,100903.69
2023-03-18T11:08:49.967Z,100898.75
2023-03-18T11:11:24.526Z,100894.44
2023-03-18T11:13:53.928Z,100898.06
2023-03-18T11:20:43.175Z,100915.13
2023-03-18T11:23:18.019Z,100905.34
2023-03-18T11:25:49.826Z,100900.09
2023-03-18T11:28:23.095Z,100896.94
2023-03-18T11:30:53.976Z,100897.50
2023-03-18T11:33:25.966Z,100905.69
2023-03-18T11:35:58.563Z,100915.38
2023-03-18T11:38:28.990Z,100912.66
2023-03-18T11:41:08.891Z,100905.75
2023-03-18T11:43:38.617Z,100905.34
2023-03-18T11:46:10.215Z,100913.41
2023-03-18T11:48:40.375Z,100920.16
2023-03-18T11:51:38.212Z,100905.34
2023-03-18T11:54:37.108Z,100904.16
2023-03-18T11:57:14.878Z,100902.44
2023-03-18T11:59:55.847Z,100911.63
2023-03-18T12:02:52.496Z,100910.44
2023-03-18T12:05:49.750Z,100906.63
2023-03-18T12:08:29.583Z,100908.72
2023-03-18T12:11:07.433Z,100898.56
2023-03-18T12:13:46.137Z,100895.53
2023-03-18T12:16:21.964Z,100902.75
2023-03-18T12:19:15.334Z,100901.16
2023-03-18T12:22:08.495Z,100906.00
2023-03-18T12:24:58.155Z,100904.72
2023-03-18T12:27:38.534Z,100905.53
2023-03-18T12:30:22.947Z,100902.25
2023-03-18T12:32:56.434Z,100893.81
2023-03-18T12:35:41.615Z,100897.41
2023-03-18T12:38:25.116Z,100890.19
2023-03-18T12:41:05.947Z,100889.31
2023-03-18T12:43:45.380Z,100891.63
2023-03-18T12:46:23.290Z,100881.19
2023-03-18T12:48:55.747Z,100887.00
2023-03-18T12:51:29.926Z,100884.19
2023-03-18T12:54:04.469Z,100877.03
2023-03-18T12:56:39.887Z,100872.41
2023-03-18T12:59:10.546Z,100868.09
2023-03-18T13:01:45.513Z,100879.84
2023-03-18T13:04:17.343Z,100867.19
2023-03-18T13:06:49.461Z,100873.34
2023-03-18T13:09:27.145Z,100862.03
2023-03-18T13:12:07.445Z,100868.78
2023-03-18T13:14:45.799Z,100865.78
2023-03-18T13:17:16.634Z,100870.22
2023-03-18T13:19:44.840Z,100864.22
2023-03-18T13:22:33.266Z,100878.28
2023-03-18T13:25:19.577Z,100871.47
2023-03-18T13:27:59.393Z,100873.06
2023-03-18T13:30:38.413Z,100873.69
2023-03-18T13:33:31.343Z,100879.72
2023-03-18T13:36:18.356Z,100874.97
2023-03-18T13:39:05.838Z,100875.22
2023-03-18T13:41:53.870Z,100882.81
2023-03-18T13:44:30.050Z,100874.91
2023-03-18T13:47:02.604Z,100861.84
2023-03-18T13:49:33.089Z,100870.31
2023-03-18T13:52:03.737Z,100877.28
2023-03-18T13:54:35.961Z,100872.31
2023-03-18T13:57:35.842Z,100873.63
2023-03-18T14:00:30.514Z,100881.34
2023-03-18T14:03:21.928Z,100879.91
2023-03-18T14:05:51.518Z,100888.44
2023-03-18T14:08:37.289Z,100904.41
2023-03-18T14:11:49.905Z,100914.41
2023-03-18T14:14:54.819Z,100934.41
2023-03-18T14:17:45.569Z,100938.63
2023-03-18T14:20:38.444Z,100938.31
2023-03-18T14:23:33.269Z,100944.72
2023-03-18T14:26:03.703Z,100956.34
2023-03-18T14:28:45.627Z,100966.84
2023-03-18T14:31:32.542Z,100952.94
2023-03-18T14:34:20.887Z,100962.97
2023-03-18T14:37:25.374Z,100970.50
2023-03-18T14:39:56.338Z,100965.34
2023-03-18T14:42:35.388Z,100969.09
2023-03-18T14:45:12.167Z,100967.47
2023-03-18T14:47:47.779Z,100968.34
2023-03-18T14:50:36.182Z,100964.97
2023-03-18T14:53:11.432Z,100947.97
2023-03-18T14:55:40.279Z,100952.91
2023-03-18T14:58:15.971Z,100945.16
2023-03-18T15:00:44.522Z,100946.13
2023-03-18T15:03:18.912Z,100938.88
2023-03-18T15:05:48.983Z,100930.72
2023-03-18T15:08:19.749Z,100930.56
2023-03-18T15:10:50.440Z,100935.47
2023-03-18T15:13:20.416Z,100938.72
2023-03-18T15:15:48.289Z,100942.91
2023-03-18T15:18:20.005Z,100947.59
2023-03-18T15:20:53.514Z,100942.53
2023-03-18T15:23:28.845Z,100942.22
2023-03-18T15:25:57.258Z,100954.72
2023-03-18T15:28:26.645Z,100944.00
2023-03-18T15:30:56.012Z,100952.13
2023-03-18T15:33:26.123Z,100958.81
2023-03-18T15:36:05.917Z,100960.50
2023-03-18T15:38:35.001Z,100965.66
2023-03-18T15:41:06.289Z,100967.41
2023-03-18T15:43:40.115Z,100963.19
2023-03-18T15:46:15.265Z,100958.25
2023-03-18T15:48:53.985Z,100965.19
2023-03-18T15:51:27.692Z,100964.00
2023-03-18T15:53:57.859Z,100971.88
2023-03-18T15:56:27.395Z,100970.97
2023-03-18T15:59:00.700Z,100964.25
2023-03-18T16:01:28.786Z,100971.66
2023-03-18T16:03:57.000Z,100973.91
2023-03-18T16:06:26.935Z,100968.25
2023-03-18T16:08:54.701Z,100973.38
2023-03-18T16:11:24.852Z,100982.91
2023-03-18T16:13:53.764Z,100979.91
2023-03-18T16:16:27.681Z,100976.63
2023-03-18T16:18:57.166Z,100973.88
2023-03-18T16:21:27.165Z,100969.09
2023-03-18T16:23:55.057Z,100971.75
2023-03-18T16:26:23.880Z,100966.38
2023-03-18T16:28:51.970Z,100973.38
2023-03-18T16:31:19.911Z,100981.19
2023-03-18T16:33:52.688Z,100971.19
2023-03-18T16:36:32.141Z,100977.09
2023-03-18T16:39:00.174Z,100982.63
2023-03-18T16:41:28.046Z,100979.38
2023-03-18T16:43:55.914Z,100983.19
2023-03-18T16:46:24.819Z,100975.84
2023-03-18T16:48:53.173Z,100982.59
2023-03-18T16:51:21.403Z,100975.22
2023-03-18T16:53:50.818Z,100981.41
2023-03-18T16:56:21.292Z,100989.31
2023-03-18T16:58:49.457Z,100989.53
2023-03-18T17:01:19.441Z,100991.72
2023-03-18T17:03:48.044Z,100988.94
2023-03-18T17:06:15.997Z,100997.94
2023-03-18T17:08:43.906Z,100991.31
2023-03-18T17:11:19.288Z,100996.34
2023-03-18T17:13:47.540Z,101005.22
2023-03-18T17:16:19.280Z,101001.97
2023-03-18T17:18:48.233Z,101010.84
2023-03-18T17:21:17.049Z,101011.72
2023-03-18T17:23:45.659Z,101016.28
2023-03-18T17:26:16.128Z,101019.44
2023-03-18T17:28:46.728Z,101018.25
2023-03-18T17:31:14.844Z,101026.72
2023-03-18T17:33:43.227Z,101026.50
2023-03-18T17:36:11.370Z,101027.13
2023-03-18T17:38:39.128Z,101019.31
2023-03-18T17:41:14.823Z,101021.53
2023-03-18T17:43:44.382Z,101023.38
2023-03-18T17:46:12.478Z,101028.03
2023-03-18T17:48:41.120Z,101034.09
2023-03-18T17:51:14.985Z,101018.28
2023-03-18T17:53:45.375Z,101007.31
2023-03-18T17:56:15.708Z,101007.31
2023-03-18T17:58:47.335Z,100993.56
2023-03-18T18:01:17.507Z,100982.28
2023-03-18T18:03:45.341Z,100970.34
2023-03-18T18:06:17.855Z,100946.47
2023-03-18T18:08:45.641Z,100931.81
2023-03-18T18:11:19.486Z,100917.81
2023-03-18T18:13:49.512Z,100911.97
2023-03-18T18:16:18.707Z,100917.16
2023-03-18T18:18:49.525Z,100928.81
2023-03-18T18:21:21.279Z,100932.38
2023-03-18T18:23:49.115Z,100928.25
2023-03-18T18:26:19.572Z,100932.91
2023-03-18T18:28:51.303Z,100949.09
2023-03-18T18:31:21.531Z,100973.47
2023-03-18T18:33:51.456Z,100982.78
2023-03-18T18:36:19.556Z,100988.97
2023-03-18T18:38:47.509Z,100983.84
2023-03-18T18:41:15.391Z,101014.91
2023-03-18T18:43:43.278Z,101057.81
2023-03-18T18:46:15.260Z,101108.84
2023-03-18T18:48:46.780Z,101162.63
2023-03-18T18:51:17.436Z,101207.00
2023-03-18T18:53:46.029Z,101256.25
2023-03-18T18:56:16.293Z,101289.75
2023-03-18T18:58:45.533Z,101332.94
2023-03-18T19:01:16.149Z,101372.63
2023-03-18T19:03:44.563Z,101393.94
2023-03-18T19:06:25.645Z,101406.03
2023-03-18T19:08:55.798Z,101429.75
2023-03-18T19:11:26.703Z,101444.94
2023-03-18T19:13:55.129Z,101455.03
2023-03-18T19:16:30.750Z,101461.81
2023-03-18T19:18:59.773Z,101474.84
2023-03-18T19:21:28.297Z,101483.78
2023-03-18T19:23:58.349Z,101509.25
2023-03-18T19:26:27.289Z,101515.31
2023-03-18T19:28:59.389Z,101533.81
2023-03-18T19:31:35.116Z,101543.94
2023-03-18T19:34:03.334Z,101548.47
2023-03-18T19:36:33.334Z,101558.81
2023-03-18T19:39:03.805Z,101569.22
2023-03-18T19:41:34.140Z,101566.44
2023-03-18T19:44:05.148Z,101555.22
2023-03-18T19:46:39.045Z,101551.34
2023-03-18T19:49:13.664Z,101536.72
2023-03-18T19:51:41.783Z,101542.34
2023-03-18T19:54:23.935Z,101525.72
2023-03-18T19:56:53.173Z,101528.69
2023-03-18T19:59:24.006Z,101520.81
2023-03-18T20:01:53.952Z,101519.38
2023-03-18T20:04:26.612Z,101518.69
2023-03-18T20:06:55.318Z,101502.22
2023-03-18T20:09:25.048Z,101490.59
2023-03-18T20:11:59.718Z,101478.50
2023-03-18T20:14:30.982Z,101460.56
2023-03-18T20:17:02.773Z,101451.34
2023-03-18T20:19:30.898Z,101419.16
2023-03-18T20:21:59.503Z,101403.66
2023-03-18T20:24:30.339Z,101390.00
2023-03-18T20:27:02.118Z,101363.13
2023-03-18T20:29:30.143Z,101343.09
2023-03-18T20:31:59.711Z,101333.06
2023-03-18T20:34:29.084Z,101338.03
2023-03-18T20:36:57.169Z,101338.13
2023-03-18T20:39:26.412Z,101334.31
2023-03-18T20:41:54.568Z,101319.13
2023-03-18T20:44:22.479Z,101314.41
2023-03-18T20:46:50.540Z,101301.59
2023-03-18T20:49:18.542Z,101292.91
2023-03-18T20:51:49.182Z,101293.28
2023-03-18T20:54:23.989Z,101288.69
2023-03-18T20:56:54.364Z,101283.13
2023-03-18T20:59:22.768Z,101275.50
2023-03-18T21:01:52.370Z,101276.75
2023-03-18T21:04:20.258Z,101277.28
2023-03-18T21:06:49.724Z,101271.53
2023-03-18T21:09:17.813Z,101263.78
2023-03-18T21:11:46.308Z,101269.63
2023-03-18T21:14:16.417Z,101265.00
2023-03-18T21:16:44.371Z,101258.03
2023-03-18T21:19:12.639Z,101258.81
2023-03-18T21:21:41.242Z,101249.19
2023-03-18T21:24:25.622Z,101240.00
2023-03-18T21:27:04.311Z,101233.88
2023-03-18T21:29:33.344Z,101229.69
2023-03-18T21:32:02.605Z,101229.69
2023-03-18T21:34:30.791Z,101229.31
2023-03-18T21:36:58.684Z,101233.88
2023-03-18T21:39:28.151Z,101234.72
2023-03-18T21:41:58.101Z,101231.56
2023-03-18T21:44:25.886Z,101233.34
2023-03-18T21:46:53.673Z,101233.97
2023-03-18T21:49:21.787Z,101233.13
2023-03-18T21:51:49.544Z,101233.63
2023-03-18T21:54:19.740Z,101232.94
2023-03-18T21:56:49.296Z,101228.94
2023-03-18T21:59:17.096Z,101234.53
2023-03-18T22:01:45.124Z,101224.88
2023-03-18T22:04:13.861Z,101228.50
2023-03-18T22:06:41.776Z,101217.72
2023-03-18T22:09:10.218Z,101215.16
2023-03-18T22:11:38.229Z,101223.56
2023-03-18T22:14:07.528Z,101226.03
2023-03-18T22:16:35.367Z,101229.13
2023-03-18T22:19:04.051Z,101228.16
2023-03-18T22:21:32.133Z,101235.09
2023-03-18T22:24:00.648Z,101226.44
2023-03-18T22:26:28.609Z,101223.09
2023-03-18T22:28:56.483Z,101220.94
2023-03-18T22:31:27.620Z,101218.34
2023-03-18T22:33:56.329Z,101216.25
2023-03-18T22:36:25.618Z,101219.28
2023-03-18T22:38:53.859Z,101219.13
2023-03-18T22:41:24.240Z,101215.94
2023-03-18T22:43:53.300Z,101217.91
2023-03-18T22:46:21.213Z,101217.13
2023-03-18T22:48:50.458Z,101213.06
2023-03-18T22:51:24.410Z,101206.72
2023-03-18T22:53:54.103Z,101205.41
2023-03-18T22:56:23.168Z,101198.28
2023-03-18T22:58:51.330Z,101194.63
2023-03-18T23:01:21.772Z,101184.56
2023-03-18T23:03:51.388Z,101184.22
2023-03-18T23:06:23.874Z,101184.47
2023-03-18T23:08:51.846Z,101189.06
2023-03-18T23:11:20.016Z,101200.41
2023-03-18T23:13:49.928Z,101204.63
2023-03-18T23:16:20.628Z,101194.16
2023-03-18T23:18:49.071Z,101197.03
2023-03-18T23:21:20.416Z,101187.38
2023-03-18T23:23:48.940Z,101180.56
2023-03-18T23:26:17.658Z,101181.94
2023-03-18T23:28:46.149Z,101172.31
2023-03-18T23:31:14.579Z,101168.97
2023-03-18T23:33:42.479Z,101152.84
2023-03-18T23:36:11.043Z,101148.59
2023-03-18T23:38:40.685Z,101130.72
2023-03-18T23:41:08.616Z,101128.13
2023-03-18T23:43:37.206Z,101147.19
2023-03-18T23:46:05.328Z,101172.19
2023-03-18T23:48:33.305Z,101185.53
2023-03-18T23:51:03.130Z,101198.59
2023-03-18T23:53:31.049Z,101210.81
2023-03-18T23:56:00.663Z,101248.78
2023-03-18T23:58:28.471Z,101255.06
